Time;durP1;ratioP1;P1;durP2;ratioP2;P2;SDS_P1;SDS_P2;PMS_P1;PMS_P2;Temp;Humidity;BMP_temperature;BMP_pressure;BME280_temperature;BME280_humidity;BME280_pressure;Samples;Min_cycle;Max_cycle;Signal;HPM_P1;HPM_P2
2023/06/29 00:02:18;;;;;;;6.82;2.00;;;17.60;82.10;;;;;;5115254;28;20024;-71
2023/06/29 00:04:44;;;;;;;5.40;1.80;;;17.50;82.20;;;;;;5114410;28;20031;-71
2023/06/29 00:07:10;;;;;;;6.10;1.83;;;17.50;82.40;;;;;;5115157;28;20054;-71
2023/06/29 00:09:35;;;;;;;3.78;1.98;;;17.50;82.50;;;;;;5114905;28;20144;-74
2023/06/29 00:12:01;;;;;;;4.28;1.90;;;17.40;82.50;;;;;;5114842;28;20112;-71
2023/06/29 00:14:27;;;;;;;4.93;1.80;;;17.40;82.70;;;;;;5096826;28;20493;-71
2023/06/29 00:16:52;;;;;;;3.58;1.70;;;17.40;82.90;;;;;;5114510;28;20039;-70
2023/06/29 00:19:20;;;;;;;4.97;2.13;;;17.40;82.70;;;;;;5114904;28;20041;-71
2023/06/29 00:21:48;;;;;;;5.70;1.90;;;17.40;82.60;;;;;;5114329;28;20082;-71
2023/06/29 00:24:14;;;;;;;3.53;1.90;;;17.40;82.30;;;;;;5114876;28;20123;-71
2023/06/29 00:26:40;;;;;;;4.90;1.92;;;17.40;82.30;;;;;;5113929;28;20035;-71
2023/06/29 00:29:05;;;;;;;2.53;1.85;;;17.40;82.10;;;;;;5114706;28;20024;-70
2023/06/29 00:31:31;;;;;;;2.70;2.10;;;17.30;81.90;;;;;;5114701;28;20034;-71
2023/06/29 00:33:57;;;;;;;4.32;1.98;;;17.30;82.30;;;;;;5114169;28;20047;-70
2023/06/29 00:36:23;;;;;;;3.33;1.58;;;17.20;82.40;;;;;;5114550;28;20452;-71
2023/06/29 00:38:48;;;;;;;3.20;1.90;;;17.20;82.80;;;;;;5114054;28;20535;-71
2023/06/29 00:41:14;;;;;;;2.47;1.70;;;17.20;83.00;;;;;;5114575;28;20042;-71
2023/06/29 00:43:43;;;;;;;2.45;1.67;;;17.10;83.20;;;;;;5114012;28;20024;-73
2023/06/29 00:46:10;;;;;;;2.53;2.08;;;17.10;83.40;;;;;;5114172;28;20047;-71
2023/06/29 00:48:38;;;;;;;2.80;1.63;;;17.20;83.80;;;;;;5114616;28;20028;-71
2023/06/29 00:51:04;;;;;;;5.07;1.63;;;17.10;83.90;;;;;;5113882;28;20119;-71
2023/06/29 00:53:31;;;;;;;4.07;1.70;;;17.10;83.70;;;;;;5114215;28;20508;-71
2023/06/29 00:55:58;;;;;;;3.65;1.80;;;17.10;84.00;;;;;;5095479;28;20039;-70
2023/06/29 00:58:25;;;;;;;6.50;1.80;;;17.10;83.80;;;;;;5114148;28;20024;-71
2023/06/29 01:00:51;;;;;;;5.85;1.60;;;17.10;83.80;;;;;;5113567;28;20102;-71
2023/06/29 01:03:16;;;;;;;3.83;1.98;;;17.00;83.90;;;;;;5114034;28;20108;-71
2023/06/29 01:05:45;;;;;;;3.00;1.70;;;17.10;84.00;;;;;;5112886;28;20094;-71
2023/06/29 01:08:21;;;;;;;2.20;1.65;;;17.00;84.00;;;;;;5113820;28;20028;-70
2023/06/29 01:10:48;;;;;;;3.50;1.80;;;17.00;83.90;;;;;;5113391;28;20058;-70
2023/06/29 01:13:17;;;;;;;6.90;2.75;;;17.00;84.10;;;;;;5113696;28;20027;-71
2023/06/29 01:15:43;;;;;;;4.10;1.60;;;17.00;84.10;;;;;;5118119;27;20151;-74
2023/06/29 01:18:12;;;;;;;4.93;2.17;;;16.90;84.00;;;;;;5134145;27;20019;-70
2023/06/29 01:20:39;;;;;;;5.00;2.03;;;16.90;84.10;;;;;;5121430;27;20038;-70
2023/06/29 01:23:23;;;;;;;2.25;1.85;;;16.90;84.00;;;;;;5112816;28;20024;-70
2023/06/29 01:25:50;;;;;;;4.22;2.10;;;16.90;83.80;;;;;;5113269;28;20024;-70
2023/06/29 01:28:16;;;;;;;6.10;2.08;;;16.90;84.40;;;;;;5113780;28;20055;-72
2023/06/29 01:30:48;;;;;;;6.22;2.10;;;16.90;83.90;;;;;;5113293;28;20050;-75
2023/06/29 01:33:16;;;;;;;5.10;2.08;;;16.90;84.20;;;;;;5113678;28;20024;-72
2023/06/29 01:35:42;;;;;;;3.78;1.70;;;16.90;84.20;;;;;;5113077;28;20426;-73
2023/06/29 01:38:23;;;;;;;3.88;2.00;;;16.90;84.20;;;;;;5113365;28;20020;-72
2023/06/29 01:40:50;;;;;;;5.40;1.80;;;16.90;84.20;;;;;;5113259;28;20528;-70
2023/06/29 01:43:18;;;;;;;4.95;2.00;;;16.80;84.00;;;;;;5113203;28;20137;-70
2023/06/29 01:45:45;;;;;;;7.78;2.10;;;16.70;84.00;;;;;;5112519;28;20062;-75
2023/06/29 01:48:12;;;;;;;3.83;1.98;;;16.70;84.20;;;;;;5113628;28;20031;-70
2023/06/29 01:50:37;;;;;;;4.00;2.10;;;16.70;84.40;;;;;;5113127;28;20023;-71
2023/06/29 01:53:03;;;;;;;4.70;1.73;;;16.70;84.60;;;;;;5112851;28;20698;-71
2023/06/29 01:55:29;;;;;;;4.57;1.55;;;16.60;84.70;;;;;;5113050;28;20035;-71
2023/06/29 01:57:55;;;;;;;5.40;2.15;;;16.60;84.50;;;;;;5112459;28;20024;-71
2023/06/29 02:00:20;;;;;;;3.72;1.70;;;16.60;84.60;;;;;;5113517;28;20031;-71
2023/06/29 02:02:46;;;;;;;3.67;1.85;;;16.50;84.80;;;;;;5112600;28;20023;-72
2023/06/29 02:05:12;;;;;;;3.85;1.75;;;16.50;84.80;;;;;;5112851;28;20118;-72
2023/06/29 02:07:38;;;;;;;4.40;1.90;;;16.50;85.00;;;;;;5113096;28;20028;-71
2023/06/29 02:10:04;;;;;;;2.10;1.60;;;16.50;85.10;;;;;;5112526;28;20019;-71
2023/06/29 02:12:30;;;;;;;2.63;1.90;;;16.50;85.10;;;;;;5113346;28;20060;-71
2023/06/29 02:14:56;;;;;;;3.33;1.90;;;16.50;85.30;;;;;;5112479;28;20422;-71
2023/06/29 02:17:22;;;;;;;2.80;2.00;;;16.50;85.20;;;;;;5112243;28;20032;-71
2023/06/29 02:19:47;;;;;;;6.65;1.98;;;16.50;85.10;;;;;;5111939;28;20099;-72
2023/06/29 02:22:13;;;;;;;3.88;1.90;;;16.50;85.10;;;;;;5113410;28;20027;-71
2023/06/29 02:24:39;;;;;;;6.32;2.47;;;16.40;85.40;;;;;;5112559;28;20047;-71
2023/06/29 02:27:04;;;;;;;2.67;1.65;;;16.40;85.40;;;;;;5112112;28;20660;-71
2023/06/29 02:29:30;;;;;;;4.32;2.13;;;16.40;85.30;;;;;;5114132;28;20031;-71
2023/06/29 02:31:56;;;;;;;3.92;1.95;;;16.40;85.60;;;;;;5112903;28;20024;-72
2023/06/29 02:34:21;;;;;;;3.92;2.05;;;16.30;85.70;;;;;;5112621;28;20483;-71
2023/06/29 02:36:47;;;;;;;3.40;2.00;;;16.30;85.60;;;;;;5111953;28;20065;-71
2023/06/29 02:39:12;;;;;;;5.88;2.30;;;16.30;85.80;;;;;;5113834;28;20460;-72
2023/06/29 02:41:38;;;;;;;3.90;1.90;;;16.20;86.10;;;;;;5133186;28;20030;-71
2023/06/29 02:44:04;;;;;;;3.97;1.73;;;16.30;86.40;;;;;;5132777;28;20106;-71
2023/06/29 02:46:29;;;;;;;2.13;1.52;;;16.30;86.30;;;;;;5132559;28;20051;-71
2023/06/29 02:48:55;;;;;;;6.38;2.03;;;16.30;86.30;;;;;;5114408;28;20194;-72
2023/06/29 02:51:22;;;;;;;4.03;1.90;;;16.30;85.90;;;;;;5133172;28;20020;-71
2023/06/29 02:53:48;;;;;;;7.97;2.38;;;16.30;85.80;;;;;;5132385;28;20027;-74
2023/06/29 02:56:13;;;;;;;4.07;1.98;;;16.30;85.80;;;;;;5133348;28;20033;-72
2023/06/29 02:58:39;;;;;;;3.15;1.75;;;16.30;86.10;;;;;;5133089;28;20027;-71
2023/06/29 03:01:05;;;;;;;2.95;2.15;;;16.30;85.80;;;;;;5132559;28;20076;-72
2023/06/29 03:03:30;;;;;;;3.38;1.80;;;16.30;85.60;;;;;;5133430;28;20420;-71
2023/06/29 03:05:56;;;;;;;2.70;2.03;;;16.30;85.30;;;;;;5132167;28;20084;-70
2023/06/29 03:08:21;;;;;;;4.32;2.20;;;16.30;85.30;;;;;;5132734;28;20468;-69
2023/06/29 03:10:47;;;;;;;3.25;1.98;;;16.30;85.50;;;;;;5133131;28;20062;-71
2023/06/29 03:13:12;;;;;;;3.53;1.88;;;16.30;85.30;;;;;;5132083;28;20464;-70
2023/06/29 03:15:38;;;;;;;4.93;1.98;;;16.30;85.40;;;;;;5132879;28;20027;-71
2023/06/29 03:18:04;;;;;;;5.57;1.83;;;16.30;85.40;;;;;;5123213;28;20084;-70
2023/06/29 03:20:29;;;;;;;3.00;1.85;;;16.30;85.30;;;;;;5111952;28;20035;-71
2023/06/29 03:22:55;;;;;;;4.63;2.00;;;16.30;85.50;;;;;;5114339;28;20116;-70
2023/06/29 03:25:20;;;;;;;3.40;1.70;;;16.30;85.70;;;;;;5125173;28;20031;-70
2023/06/29 03:27:46;;;;;;;4.50;2.17;;;16.30;85.70;;;;;;5112138;28;20515;-70
2023/06/29 03:30:12;;;;;;;3.22;1.90;;;16.30;85.70;;;;;;5118102;27;20035;-71
2023/06/29 03:32:37;;;;;;;3.65;2.30;;;16.20;85.60;;;;;;5124696;27;20047;-71
2023/06/29 03:35:03;;;;;;;4.25;2.58;;;16.20;85.60;;;;;;5130104;27;20471;-72
2023/06/29 03:37:29;;;;;;;4.53;1.85;;;16.30;85.70;;;;;;5136385;27;20027;-70
2023/06/29 03:39:55;;;;;;;4.57;2.00;;;16.30;85.60;;;;;;5135847;27;20034;-70
2023/06/29 03:42:20;;;;;;;5.00;2.20;;;16.30;85.70;;;;;;5132687;27;20099;-71
2023/06/29 03:44:46;;;;;;;4.10;1.95;;;16.30;85.60;;;;;;5115316;28;20035;-71
2023/06/29 03:47:12;;;;;;;7.72;2.17;;;16.30;85.50;;;;;;5115092;28;20059;-72
2023/06/29 03:49:37;;;;;;;5.07;2.42;;;16.30;85.70;;;;;;5115401;28;20073;-71
2023/06/29 03:52:03;;;;;;;4.13;2.05;;;16.40;86.10;;;;;;5116630;27;20467;-73
2023/06/29 03:54:29;;;;;;;5.05;2.03;;;16.40;86.00;;;;;;5120937;27;20119;-72
2023/06/29 03:56:55;;;;;;;6.93;2.45;;;16.40;86.10;;;;;;5123324;27;20046;-72
2023/06/29 03:59:20;;;;;;;2.80;1.90;;;16.50;86.00;;;;;;5088315;28;20371;-74
2023/06/29 04:01:46;;;;;;;3.78;2.00;;;16.50;85.70;;;;;;5124047;27;20023;-70
2023/06/29 04:04:12;;;;;;;8.45;2.08;;;16.50;85.80;;;;;;5125253;27;20145;-72
2023/06/29 04:06:37;;;;;;;5.20;2.15;;;16.60;85.70;;;;;;5124779;27;20027;-72
2023/06/29 04:09:03;;;;;;;4.45;2.15;;;16.70;85.10;;;;;;5126467;27;20026;-71
2023/06/29 04:11:29;;;;;;;7.78;2.28;;;16.70;84.90;;;;;;5123890;27;20020;-71
2023/06/29 04:13:54;;;;;;;3.85;2.15;;;16.80;84.10;;;;;;5117584;27;20023;-75
2023/06/29 04:16:20;;;;;;;4.60;2.22;;;16.90;84.00;;;;;;5115025;28;20424;-71
2023/06/29 04:18:46;;;;;;;3.67;2.17;;;17.00;83.70;;;;;;5114766;28;20028;-71
2023/06/29 04:21:11;;;;;;;6.82;2.38;;;17.10;82.90;;;;;;5114264;28;20034;-71
2023/06/29 04:23:37;;;;;;;7.32;2.22;;;17.20;82.50;;;;;;5115018;28;20023;-71
2023/06/29 04:26:02;;;;;;;3.22;1.85;;;17.30;82.30;;;;;;5114175;28;20031;-71
2023/06/29 04:28:29;;;;;;;4.75;2.03;;;17.40;81.60;;;;;;5114857;28;20110;-71
2023/06/29 04:30:54;;;;;;;4.80;1.90;;;17.60;81.50;;;;;;5114747;28;20020;-75
2023/06/29 04:33:21;;;;;;;5.35;2.20;;;17.70;80.20;;;;;;5114268;28;20031;-70
2023/06/29 04:35:47;;;;;;;3.72;1.75;;;17.90;79.40;;;;;;5114444;28;20551;-71
2023/06/29 04:38:17;;;;;;;3.45;2.10;;;18.10;79.20;;;;;;5113988;28;20103;-71
2023/06/29 04:40:43;;;;;;;8.63;2.08;;;18.30;78.80;;;;;;5113766;28;20028;-71
2023/06/29 04:43:09;;;;;;;8.07;2.20;;;18.60;77.40;;;;;;5113979;28;20197;-71
2023/06/29 04:45:34;;;;;;;5.53;1.88;;;18.80;75.70;;;;;;5114450;28;20046;-71
2023/06/29 04:48:01;;;;;;;5.95;2.13;;;19.10;75.20;;;;;;5113905;28;20034;-72
2023/06/29 04:50:31;;;;;;;5.53;2.25;;;19.40;73.60;;;;;;5114503;28;20464;-69
2023/06/29 04:53:08;;;;;;;3.22;1.83;;;19.80;72.70;;;;;;5114034;28;20506;-74
2023/06/29 04:55:33;;;;;;;4.88;2.13;;;20.10;72.00;;;;;;5114300;28;20036;-71
2023/06/29 04:57:59;;;;;;;6.70;2.70;;;20.40;70.70;;;;;;5113956;28;20024;-75
2023/06/29 05:00:24;;;;;;;4.05;2.25;;;20.70;69.90;;;;;;5113950;28;20030;-72
2023/06/29 05:02:50;;;;;;;3.78;2.00;;;21.30;67.90;;;;;;5114250;28;20024;-72
2023/06/29 05:05:16;;;;;;;7.20;2.30;;;21.90;65.50;;;;;;5113597;28;20471;-70
2023/06/29 05:07:41;;;;;;;4.03;1.90;;;22.50;62.80;;;;;;5114221;28;20042;-71
2023/06/29 05:10:07;;;;;;;3.30;2.15;;;23.20;60.50;;;;;;5113578;28;20020;-72
2023/06/29 05:12:33;;;;;;;3.55;1.83;;;23.70;58.60;;;;;;5120906;27;20087;-72
2023/06/29 05:14:59;;;;;;;7.53;2.60;;;24.20;57.20;;;;;;5134374;27;20438;-75
2023/06/29 05:17:24;;;;;;;3.35;2.00;;;24.70;55.70;;;;;;5133863;27;20058;-72
2023/06/29 05:19:50;;;;;;;6.05;2.17;;;25.30;54.20;;;;;;5134449;27;20027;-72
2023/06/29 05:22:15;;;;;;;4.38;1.95;;;26.00;52.60;;;;;;5118919;27;20028;-72
2023/06/29 05:24:42;;;;;;;5.25;1.90;;;26.30;51.10;;;;;;5113296;28;20421;-72
2023/06/29 05:27:08;;;;;;;6.03;2.08;;;26.50;50.00;;;;;;5125366;27;20378;-72
2023/06/29 05:29:34;;;;;;;2.33;1.70;;;26.60;49.10;;;;;;5130876;27;20034;-72
2023/06/29 05:32:00;;;;;;;6.43;2.20;;;26.60;49.00;;;;;;5123365;27;20102;-75
2023/06/29 05:34:25;;;;;;;3.05;1.80;;;26.90;48.70;;;;;;5113265;28;20118;-72
2023/06/29 05:36:52;;;;;;;6.10;2.03;;;26.90;48.30;;;;;;5113504;28;20024;-72
2023/06/29 05:39:18;;;;;;;6.22;2.35;;;26.90;47.80;;;;;;5112729;28;20372;-72
2023/06/29 05:41:43;;;;;;;3.42;2.08;;;26.90;48.20;;;;;;5113547;28;20035;-71
2023/06/29 05:44:09;;;;;;;3.50;2.25;;;27.20;47.80;;;;;;5114543;27;20058;-71
2023/06/29 05:46:34;;;;;;;5.30;2.10;;;27.20;47.50;;;;;;5134022;27;20521;-71
2023/06/29 05:49:01;;;;;;;4.90;2.20;;;27.20;47.00;;;;;;5133507;27;20023;-72
2023/06/29 05:51:26;;;;;;;4.07;2.10;;;27.40;46.50;;;;;;5133543;27;20019;-72
2023/06/29 05:53:52;;;;;;;3.10;2.22;;;27.60;46.90;;;;;;5133838;27;20144;-72
2023/06/29 05:56:18;;;;;;;3.25;1.98;;;27.80;45.80;;;;;;5132879;27;20034;-72
2023/06/29 05:58:44;;;;;;;4.85;2.15;;;28.10;45.40;;;;;;5133340;27;20031;-72
2023/06/29 06:01:09;;;;;;;3.25;1.65;;;28.20;43.90;;;;;;5132931;27;20030;-72
2023/06/29 06:03:35;;;;;;;4.38;1.80;;;28.90;43.70;;;;;;5133675;27;20414;-72
2023/06/29 06:06:01;;;;;;;6.53;1.67;;;28.90;43.30;;;;;;5133490;27;20123;-72
2023/06/29 06:08:27;;;;;;;5.32;2.22;;;29.00;42.70;;;;;;5133085;27;20092;-72
2023/06/29 06:10:53;;;;;;;3.38;1.70;;;29.40;42.10;;;;;;5129880;27;20023;-72
2023/06/29 06:13:18;;;;;;;3.95;1.52;;;30.20;41.40;;;;;;5094024;28;20021;-72
2023/06/29 06:15:45;;;;;;;5.22;1.90;;;30.80;40.50;;;;;;5112541;28;20487;-72
2023/06/29 06:18:11;;;;;;;5.78;1.60;;;31.50;40.10;;;;;;5112434;28;20031;-72
2023/06/29 06:20:37;;;;;;;3.05;1.40;;;32.30;38.40;;;;;;5112838;28;20464;-72
2023/06/29 06:23:02;;;;;;;4.57;1.55;;;32.90;37.20;;;;;;5112727;28;20106;-72
2023/06/29 06:25:28;;;;;;;5.43;1.20;;;33.50;37.00;;;;;;5095560;28;20028;-72
2023/06/29 06:27:53;;;;;;;2.17;1.38;;;33.90;35.30;;;;;;5119351;28;20034;-72
2023/06/29 06:30:20;;;;;;;4.38;1.52;;;34.30;34.80;;;;;;5122542;28;20039;-72
2023/06/29 06:32:46;;;;;;;5.53;1.50;;;35.00;34.60;;;;;;5125645;28;20114;-72
2023/06/29 06:35:12;;;;;;;3.13;1.40;;;35.40;33.90;;;;;;5119943;28;20110;-71
2023/06/29 06:37:38;;;;;;;2.22;1.20;;;35.70;34.20;;;;;;5118104;28;20024;-72
2023/06/29 06:40:23;;;;;;;3.38;1.40;;;36.00;32.70;;;;;;5122155;28;20062;-72
2023/06/29 06:42:49;;;;;;;2.55;1.10;;;35.90;32.30;;;;;;5124999;28;20400;-72
2023/06/29 06:45:14;;;;;;;1.90;1.20;;;36.30;31.40;;;;;;5122917;28;20114;-73
2023/06/29 06:47:40;;;;;;;3.55;1.88;;;36.60;30.90;;;;;;5117725;28;20036;-73
2023/06/29 06:50:06;;;;;;;2.17;1.20;;;36.20;31.30;;;;;;5121778;28;20054;-72
2023/06/29 06:52:32;;;;;;;5.93;1.30;;;36.70;30.70;;;;;;5121016;28;20055;-73
2023/06/29 06:54:57;;;;;;;3.35;1.85;;;36.50;30.50;;;;;;5123384;28;20066;-73
2023/06/29 06:57:24;;;;;;;2.75;1.25;;;36.70;30.70;;;;;;5121952;28;20027;-74
2023/06/29 06:59:49;;;;;;;2.35;1.33;;;37.00;30.10;;;;;;5117523;28;20450;-73
2023/06/29 07:02:16;;;;;;;3.13;1.60;;;37.20;30.00;;;;;;5120328;28;20096;-72
2023/06/29 07:04:42;;;;;;;6.60;1.38;;;37.20;29.80;;;;;;5122671;27;20023;-73
2023/06/29 07:07:07;;;;;;;4.30;1.25;;;37.10;30.10;;;;;;5117871;27;20054;-72
2023/06/29 07:09:33;;;;;;;3.30;1.30;;;37.10;30.10;;;;;;5116501;27;20030;-73
2023/06/29 07:11:59;;;;;;;6.90;1.48;;;36.80;29.90;;;;;;5115873;27;20031;-72
2023/06/29 07:14:25;;;;;;;3.33;1.58;;;37.20;29.90;;;;;;5136164;27;20031;-72
2023/06/29 07:16:51;;;;;;;2.95;1.40;;;37.20;29.30;;;;;;5133253;27;20024;-73
2023/06/29 07:19:17;;;;;;;3.67;1.33;;;36.80;29.70;;;;;;5132559;27;20027;-73
2023/06/29 07:21:43;;;;;;;3.10;1.17;;;36.80;30.00;;;;;;5131074;27;20027;-73
2023/06/29 07:24:09;;;;;;;2.95;1.30;;;36.80;29.40;;;;;;5121430;27;20063;-72
2023/06/29 07:26:36;;;;;;;2.53;1.30;;;36.80;29.50;;;;;;5115968;28;20028;-72
2023/06/29 07:29:03;;;;;;;4.88;1.50;;;36.60;29.50;;;;;;5124912;27;20027;-72
2023/06/29 07:31:29;;;;;;;2.40;1.40;;;36.30;30.20;;;;;;5134191;27;20030;-72
2023/06/29 07:33:55;;;;;;;6.95;1.80;;;36.60;29.60;;;;;;5115852;28;20023;-72
2023/06/29 07:36:22;;;;;;;3.50;1.30;;;36.60;29.50;;;;;;5115727;28;20035;-73
2023/06/29 07:38:48;;;;;;;4.70;1.40;;;36.60;29.90;;;;;;5115897;28;20028;-72
2023/06/29 07:41:15;;;;;;;4.15;1.50;;;36.80;29.70;;;;;;5115248;28;20403;-73
2023/06/29 07:43:45;;;;;;;4.07;1.55;;;36.80;30.00;;;;;;5115935;28;20035;-72
2023/06/29 07:46:11;;;;;;;4.05;1.55;;;36.40;29.30;;;;;;5115194;28;20154;-73
2023/06/29 07:48:37;;;;;;;4.30;1.77;;;36.50;29.80;;;;;;5115730;28;20110;-72
2023/06/29 07:51:03;;;;;;;3.17;1.40;;;36.50;29.60;;;;;;5120924;27;20031;-73
2023/06/29 07:53:29;;;;;;;6.43;1.45;;;36.60;29.80;;;;;;5127420;27;20031;-72
2023/06/29 07:55:55;;;;;;;3.38;1.13;;;37.00;30.40;;;;;;5123174;27;20028;-72
2023/06/29 07:58:21;;;;;;;2.90;1.38;;;36.80;29.60;;;;;;5130166;27;20195;-72
2023/06/29 08:00:46;;;;;;;5.55;1.65;;;36.90;29.10;;;;;;5133232;27;20409;-72
2023/06/29 08:03:12;;;;;;;5.55;1.30;;;36.40;29.80;;;;;;5114556;28;20032;-76
2023/06/29 08:05:38;;;;;;;3.33;1.25;;;35.90;29.40;;;;;;5107813;27;20049;-72
2023/06/29 08:08:03;;;;;;;5.72;1.65;;;35.30;30.50;;;;;;5125238;27;20438;-74
2023/06/29 08:10:29;;;;;;;3.88;1.60;;;35.40;29.90;;;;;;5114152;28;20023;-72
2023/06/29 08:12:55;;;;;;;5.20;1.48;;;35.30;29.90;;;;;;5115110;28;20072;-71
2023/06/29 08:15:21;;;;;;;3.55;1.23;;;35.10;29.90;;;;;;5113724;28;20484;-72
2023/06/29 08:17:46;;;;;;;3.70;1.42;;;35.00;29.90;;;;;;5114725;28;20063;-73
2023/06/29 08:20:12;;;;;;;3.55;1.38;;;35.00;30.20;;;;;;5114856;28;20055;-77
2023/06/29 08:22:39;;;;;;;4.80;1.42;;;35.10;30.70;;;;;;5115203;28;20027;-72
2023/06/29 08:25:05;;;;;;;5.03;1.83;;;35.00;30.10;;;;;;5115107;28;20084;-71
2023/06/29 08:27:32;;;;;;;3.53;1.58;;;34.90;30.60;;;;;;5114657;28;20092;-71
2023/06/29 08:29:57;;;;;;;5.00;1.45;;;34.80;30.20;;;;;;5114636;28;20114;-72
2023/06/29 08:32:23;;;;;;;1.85;1.27;;;34.70;30.90;;;;;;5114561;28;20028;-72
2023/06/29 08:34:48;;;;;;;1.73;1.00;;;34.40;30.70;;;;;;5115123;28;20027;-71
2023/06/29 08:37:14;;;;;;;1.98;1.20;;;33.80;31.10;;;;;;5114512;28;20024;-72
2023/06/29 08:39:40;;;;;;;3.80;1.38;;;33.10;31.10;;;;;;5114770;28;20119;-70
2023/06/29 08:42:07;;;;;;;3.17;1.30;;;32.60;31.10;;;;;;5114691;28;20038;-72
2023/06/29 08:44:33;;;;;;;2.33;1.50;;;31.90;31.70;;;;;;5114250;28;20063;-71
2023/06/29 08:47:01;;;;;;;5.90;1.67;;;31.40;31.70;;;;;;5114916;28;20108;-72
2023/06/29 08:49:27;;;;;;;3.35;1.48;;;31.20;33.30;;;;;;5114183;28;20098;-72
2023/06/29 08:51:59;;;;;;;3.05;1.50;;;30.90;33.30;;;;;;5114641;28;20053;-71
2023/06/29 08:54:26;;;;;;;2.30;1.40;;;30.70;33.70;;;;;;5113959;28;20032;-71
2023/06/29 08:56:52;;;;;;;3.00;1.30;;;30.30;34.50;;;;;;5114235;28;20036;-72
2023/06/29 08:59:18;;;;;;;3.55;1.20;;;29.90;34.60;;;;;;5113937;28;20068;-74
2023/06/29 09:01:45;;;;;;;6.95;1.50;;;29.70;34.80;;;;;;5114382;28;20451;-72
2023/06/29 09:04:11;;;;;;;1.73;1.10;;;29.60;35.10;;;;;;5114291;28;20053;-71
2023/06/29 09:06:37;;;;;;;4.55;1.48;;;29.30;35.40;;;;;;5113731;28;20063;-72
2023/06/29 09:09:03;;;;;;;2.83;1.23;;;29.10;35.70;;;;;;5114199;28;20027;-71
2023/06/29 09:11:33;;;;;;;2.80;1.42;;;29.10;36.00;;;;;;5113752;28;20031;-70
2023/06/29 09:14:07;;;;;;;3.25;1.50;;;29.00;36.20;;;;;;5116671;27;20034;-71
2023/06/29 09:16:36;;;;;;;4.03;1.63;;;28.80;36.00;;;;;;5113829;28;20090;-71
2023/06/29 09:19:05;;;;;;;3.67;1.52;;;28.40;36.60;;;;;;5114523;27;20027;-74
2023/06/29 09:21:31;;;;;;;2.90;1.70;;;28.50;37.50;;;;;;5130741;27;20023;-71
2023/06/29 09:23:57;;;;;;;3.58;1.42;;;28.20;37.90;;;;;;5134433;27;20374;-72
2023/06/29 09:26:28;;;;;;;3.97;1.52;;;28.20;37.90;;;;;;5133347;27;20440;-70
2023/06/29 09:29:03;;;;;;;5.05;1.55;;;28.20;38.20;;;;;;5134116;27;20060;-71
2023/06/29 09:31:33;;;;;;;5.03;1.40;;;28.10;38.20;;;;;;5133969;27;20062;-72
2023/06/29 09:34:19;;;;;;;2.65;1.55;;;28.10;38.90;;;;;;5134126;27;20023;-72
2023/06/29 09:36:46;;;;;;;4.00;1.67;;;28.10;39.00;;;;;;5134408;27;20023;-72
2023/06/29 09:39:12;;;;;;;3.72;1.50;;;27.90;39.60;;;;;;5133917;27;20035;-72
2023/06/29 09:41:46;;;;;;;8.20;1.50;;;27.60;41.80;;;;;;5133765;27;20708;-72
2023/06/29 09:44:14;;;;;;;5.45;1.77;;;27.70;39.80;;;;;;5134225;27;20065;-71
2023/06/29 09:46:42;;;;;;;3.05;1.55;;;27.70;39.50;;;;;;5133181;27;20047;-71
2023/06/29 09:49:11;;;;;;;4.32;1.42;;;27.70;36.80;;;;;;5134011;27;20023;-72
2023/06/29 09:51:38;;;;;;;4.28;1.60;;;27.50;37.20;;;;;;5133388;27;20046;-72
2023/06/29 09:54:04;;;;;;;5.40;1.70;;;27.20;37.40;;;;;;5133944;27;20038;-71
2023/06/29 09:56:36;;;;;;;3.90;1.67;;;26.90;38.30;;;;;;5133513;27;20031;-71
2023/06/29 09:59:04;;;;;;;5.25;1.70;;;26.90;39.70;;;;;;5134241;27;20025;-72
2023/06/29 10:01:30;;;;;;;3.10;1.17;;;26.90;39.40;;;;;;5133232;27;20068;-71
2023/06/29 10:03:57;;;;;;;4.80;1.40;;;27.00;39.80;;;;;;5133674;27;20428;-71
2023/06/29 10:06:34;;;;;;;2.33;1.35;;;27.10;39.60;;;;;;5133170;27;20035;-71
2023/06/29 10:09:01;;;;;;;3.65;1.48;;;27.20;40.30;;;;;;5133766;27;20149;-71
2023/06/29 10:11:33;;;;;;;6.68;1.85;;;27.10;38.70;;;;;;5132988;27;20030;-71
2023/06/29 10:14:01;;;;;;;2.08;1.35;;;27.20;39.70;;;;;;5133483;27;20029;-70
2023/06/29 10:16:32;;;;;;;3.08;1.40;;;27.10;39.70;;;;;;5133215;27;20030;-71
2023/06/29 10:19:07;;;;;;;2.75;1.63;;;26.90;40.40;;;;;;5133860;27;20080;-72
2023/06/29 10:21:33;;;;;;;1.52;1.15;;;26.90;41.60;;;;;;5133044;27;20019;-72
2023/06/29 10:24:01;;;;;;;4.10;1.70;;;27.10;39.80;;;;;;5133770;27;20106;-71
2023/06/29 10:26:27;;;;;;;2.47;1.58;;;27.10;39.90;;;;;;5133001;27;20061;-71
2023/06/29 10:28:52;;;;;;;4.43;1.65;;;27.20;40.90;;;;;;5133289;28;20458;-71
2023/06/29 10:31:19;;;;;;;1.50;1.15;;;27.10;41.20;;;;;;5133374;28;20138;-71
2023/06/29 10:33:48;;;;;;;4.72;1.42;;;27.10;42.10;;;;;;5132988;28;20475;-71
2023/06/29 10:36:15;;;;;;;1.75;1.30;;;27.10;40.70;;;;;;5133310;28;20027;-71
2023/06/29 10:38:41;;;;;;;3.35;1.55;;;27.10;41.20;;;;;;5133227;27;20054;-71
2023/06/29 10:41:07;;;;;;;4.85;1.38;;;27.30;41.00;;;;;;5137661;27;20051;-71
2023/06/29 10:43:58;;;;;;;4.05;1.35;;;27.40;40.60;;;;;;5137247;27;20019;-70
2023/06/29 10:46:47;;;;;;;5.15;1.67;;;27.40;40.60;;;;;;5136876;27;20047;-71
2023/06/29 10:49:24;;;;;;;5.97;1.63;;;27.50;40.20;;;;;;5137448;27;20030;-70
2023/06/29 10:51:52;;;;;;;5.20;1.48;;;27.70;40.70;;;;;;5137567;27;20030;-71
2023/06/29 10:54:24;;;;;;;2.63;1.55;;;27.50;40.40;;;;;;5137274;27;20030;-70
2023/06/29 10:57:01;;;;;;;1.90;1.08;;;27.50;39.90;;;;;;5137583;27;20049;-70
2023/06/29 10:59:28;;;;;;;2.42;1.40;;;27.40;40.20;;;;;;5136830;27;20069;-71
2023/06/29 11:01:54;;;;;;;2.75;1.42;;;27.40;40.30;;;;;;5137297;27;20074;-71
2023/06/29 11:04:21;;;;;;;2.45;1.45;;;27.40;40.00;;;;;;5137106;27;20019;-70
2023/06/29 11:06:47;;;;;;;2.50;1.60;;;27.40;40.00;;;;;;5136697;27;20023;-70
2023/06/29 11:09:16;;;;;;;6.43;1.80;;;27.50;40.00;;;;;;5123872;27;20363;-70
2023/06/29 11:11:49;;;;;;;4.65;1.60;;;27.60;40.20;;;;;;5116026;28;20028;-71
2023/06/29 11:14:15;;;;;;;2.95;1.42;;;27.40;40.00;;;;;;5116356;28;20062;-70
2023/06/29 11:16:41;;;;;;;2.90;1.48;;;27.40;40.50;;;;;;5115812;28;20073;-71
2023/06/29 11:19:07;;;;;;;2.85;1.40;;;27.50;40.50;;;;;;5116406;28;20024;-70
2023/06/29 11:21:33;;;;;;;2.08;1.70;;;27.50;38.90;;;;;;5115825;28;20055;-72
2023/06/29 11:23:59;;;;;;;2.05;1.30;;;27.40;39.00;;;;;;5115735;28;20062;-72
2023/06/29 11:26:26;;;;;;;3.95;1.70;;;27.40;39.20;;;;;;5115796;28;20068;-70
2023/06/29 11:28:53;;;;;;;6.90;1.60;;;27.40;40.10;;;;;;5118607;27;20042;-71
2023/06/29 11:31:22;;;;;;;3.78;1.73;;;27.40;40.80;;;;;;5116664;27;20121;-71
2023/06/29 11:33:49;;;;;;;3.83;1.80;;;27.30;42.40;;;;;;5115387;28;20098;-70
2023/06/29 11:36:15;;;;;;;2.22;1.40;;;27.40;41.00;;;;;;5115862;28;20027;-70
2023/06/29 11:38:41;;;;;;;8.00;1.98;;;27.50;41.60;;;;;;5115426;28;20475;-70
2023/06/29 11:41:06;;;;;;;4.43;1.40;;;27.60;40.20;;;;;;5115994;28;20477;-70
2023/06/29 11:43:32;;;;;;;4.20;1.60;;;27.60;40.70;;;;;;5115492;28;20428;-72
2023/06/29 11:45:58;;;;;;;5.78;1.65;;;27.70;40.20;;;;;;5115427;28;20052;-71
2023/06/29 11:48:24;;;;;;;3.83;1.63;;;27.70;41.10;;;;;;5115410;28;20037;-71
2023/06/29 11:50:50;;;;;;;3.42;1.60;;;27.80;39.70;;;;;;5114650;28;20019;-71
2023/06/29 11:53:16;;;;;;;4.07;1.50;;;27.80;40.10;;;;;;5115313;28;20418;-70
2023/06/29 11:55:50;;;;;;;2.30;1.40;;;27.80;39.30;;;;;;5114978;28;20035;-70
2023/06/29 11:58:15;;;;;;;3.85;1.92;;;27.70;38.90;;;;;;5115420;28;20066;-71
2023/06/29 12:00:41;;;;;;;3.15;1.80;;;27.70;39.20;;;;;;5114968;28;20456;-70
2023/06/29 12:03:08;;;;;;;5.15;1.60;;;27.70;40.30;;;;;;5115545;28;20029;-71
2023/06/29 12:05:39;;;;;;;2.30;1.67;;;27.70;40.10;;;;;;5114959;28;20130;-70
2023/06/29 12:08:07;;;;;;;3.67;1.67;;;27.70;39.50;;;;;;5115142;28;20050;-70
2023/06/29 12:10:37;;;;;;;3.20;1.35;;;27.70;39.50;;;;;;5114968;28;20062;-70
2023/06/29 12:13:03;;;;;;;1.95;1.30;;;27.70;39.70;;;;;;5115138;28;20050;-70
2023/06/29 12:15:31;;;;;;;6.70;1.38;;;27.50;38.70;;;;;;5115362;28;20464;-71
2023/06/29 12:18:29;;;;;;;3.33;1.60;;;27.50;39.20;;;;;;5114948;28;20384;-70
2023/06/29 12:21:01;;;;;;;3.25;1.55;;;27.50;39.20;;;;;;5103093;28;20143;-70
2023/06/29 12:23:26;;;;;;;3.15;1.60;;;27.50;39.10;;;;;;5115196;28;20107;-71
2023/06/29 12:25:52;;;;;;;1.83;1.38;;;27.50;39.90;;;;;;5114550;28;20115;-70
2023/06/29 12:28:19;;;;;;;4.05;1.75;;;27.40;39.70;;;;;;5115000;28;20028;-70
2023/06/29 12:30:45;;;;;;;3.55;1.92;;;27.30;39.80;;;;;;5114638;28;20152;-70
2023/06/29 12:33:12;;;;;;;2.45;1.60;;;27.20;40.00;;;;;;5114965;28;20034;-70
2023/06/29 12:35:38;;;;;;;6.47;1.73;;;27.10;40.00;;;;;;5114512;28;20039;-71
2023/06/29 12:38:04;;;;;;;3.80;1.75;;;27.10;41.10;;;;;;5115027;28;20371;-70
2023/06/29 12:40:30;;;;;;;2.45;1.50;;;27.00;41.10;;;;;;5114783;28;20106;-70
2023/06/29 12:42:56;;;;;;;5.80;1.50;;;26.90;41.70;;;;;;5114290;28;20030;-70
2023/06/29 12:45:22;;;;;;;3.05;1.50;;;27.00;42.00;;;;;;5114407;28;20031;-70
2023/06/29 12:47:48;;;;;;;3.08;1.40;;;26.90;41.20;;;;;;5114430;28;20039;-70